sensor_id;sensor_type;location;lat;lon;timestamp;temperature;humidity
20777;DHT22;10548;47.504;8.248;2022-10-31T00:01:25;11.70;99.90
20777;DHT22;10548;47.504;8.248;2022-10-31T00:03:52;11.80;99.90
20777;DHT22;10548;47.504;8.248;2022-10-31T00:06:19;11.90;99.90
20777;DHT22;10548;47.504;8.248;2022-10-31T00:08:51;11.90;99.90
20777;DHT22;10548;47.504;8.248;2022-10-31T00:11:19;11.90;99.90
20777;DHT22;10548;47.504;8.248;2022-10-31T00:13:46;11.80;99.90
20777;DHT22;10548;47.504;8.248;2022-10-31T00:16:17;11.80;99.90
20777;DHT22;10548;47.504;8.248;2022-10-31T00:18:48;11.80;99.90
20777;DHT22;10548;47.504;8.248;2022-10-31T00:21:16;11.80;99.90
20777;DHT22;10548;47.504;8.248;2022-10-31T00:23:43;11.90;99.90
20777;DHT22;10548;47.504;8.248;2022-10-31T00:26:10;11.70;99.90
20777;DHT22;10548;47.504;8.248;2022-10-31T00:28:37;11.60;99.90
20777;DHT22;10548;47.504;8.248;2022-10-31T00:31:07;11.60;99.90
20777;DHT22;10548;47.504;8.248;2022-10-31T00:33:36;11.50;99.90
20777;DHT22;10548;47.504;8.248;2022-10-31T00:36:05;11.50;99.90
20777;DHT22;10548;47.504;8.248;2022-10-31T00:38:33;11.50;99.90
20777;DHT22;10548;47.504;8.248;2022-10-31T00:41:00;11.60;99.90
20777;DHT22;10548;47.504;8.248;2022-10-31T00:43:27;11.40;99.90
20777;DHT22;10548;47.504;8.248;2022-10-31T00:45:54;11.40;99.90
20777;DHT22;10548;47.504;8.248;2022-10-31T00:48:23;11.40;99.90
20777;DHT22;10548;47.504;8.248;2022-10-31T00:50:52;11.40;99.90
20777;DHT22;10548;47.504;8.248;2022-10-31T00:53:19;11.50;99.90
20777;DHT22;10548;47.504;8.248;2022-10-31T00:55:46;11.60;99.90
20777;DHT22;10548;47.504;8.248;2022-10-31T00:58:14;11.60;99.90
20777;DHT22;10548;47.504;8.248;2022-10-31T01:00:41;11.60;99.90
20777;DHT22;10548;47.504;8.248;2022-10-31T01:03:12;11.60;99.90
20777;DHT22;10548;47.504;8.248;2022-10-31T01:05:40;11.60;99.90
20777;DHT22;10548;47.504;8.248;2022-10-31T01:08:08;11.40;99.90
20777;DHT22;10548;47.504;8.248;2022-10-31T01:10:35;11.40;99.90
20777;DHT22;10548;47.504;8.248;2022-10-31T01:13:02;11.30;99.90
20777;DHT22;10548;47.504;8.248;2022-10-31T01:15:29;11.30;99.90
20777;DHT22;10548;47.504;8.248;2022-10-31T01:17:56;11.30;99.90
20777;DHT22;10548;47.504;8.248;2022-10-31T01:20:24;11.30;99.90
20777;DHT22;10548;47.504;8.248;2022-10-31T01:22:53;11.30;99.90
20777;DHT22;10548;47.504;8.248;2022-10-31T01:25:23;11.40;99.90
20777;DHT22;10548;47.504;8.248;2022-10-31T01:27:50;11.40;99.90
20777;DHT22;10548;47.504;8.248;2022-10-31T01:30:17;11.50;99.90
20777;DHT22;10548;47.504;8.248;2022-10-31T01:32:44;11.50;99.90
20777;DHT22;10548;47.504;8.248;2022-10-31T01:35:11;11.60;99.90
20777;DHT22;10548;47.504;8.248;2022-10-31T01:37:38;11.50;99.90
20777;DHT22;10548;47.504;8.248;2022-10-31T01:40:06;11.40;99.90
20777;DHT22;10548;47.504;8.248;2022-10-31T01:42:33;11.30;99.90
20777;DHT22;10548;47.504;8.248;2022-10-31T01:45:01;11.30;99.90
20777;DHT22;10548;47.504;8.248;2022-10-31T01:47:40;11.30;99.90
20777;DHT22;10548;47.504;8.248;2022-10-31T01:50:30;11.30;99.90
20777;DHT22;10548;47.504;8.248;2022-10-31T01:52:59;11.30;99.90
20777;DHT22;10548;47.504;8.248;2022-10-31T01:55:30;11.30;99.90
20777;DHT22;10548;47.504;8.248;2022-10-31T01:58:04;11.40;99.90
20777;DHT22;10548;47.504;8.248;2022-10-31T02:00:32;11.30;99.90
20777;DHT22;10548;47.504;8.248;2022-10-31T02:02:59;11.30;99.90
20777;DHT22;10548;47.504;8.248;2022-10-31T02:05:29;11.20;99.90
20777;DHT22;10548;47.504;8.248;2022-10-31T02:08:02;11.20;99.90
20777;DHT22;10548;47.504;8.248;2022-10-31T02:10:32;11.30;99.90
20777;DHT22;10548;47.504;8.248;2022-10-31T02:13:02;11.20;99.90
20777;DHT22;10548;47.504;8.248;2022-10-31T02:15:31;11.20;99.90
20777;DHT22;10548;47.504;8.248;2022-10-31T02:17:59;11.20;99.90
20777;DHT22;10548;47.504;8.248;2022-10-31T02:20:36;11.10;99.90
20777;DHT22;10548;47.504;8.248;2022-10-31T02:26:43;11.20;99.90
20777;DHT22;10548;47.504;8.248;2022-10-31T02:32:34;11.20;99.90
20777;DHT22;10548;47.504;8.248;2022-10-31T02:35:39;11.20;99.90
20777;DHT22;10548;47.504;8.248;2022-10-31T02:42:07;11.30;99.90
20777;DHT22;10548;47.504;8.248;2022-10-31T02:44:50;11.30;99.90
20777;DHT22;10548;47.504;8.248;2022-10-31T02:47:23;11.20;99.90
20777;DHT22;10548;47.504;8.248;2022-10-31T02:50:20;11.10;99.90
20777;DHT22;10548;47.504;8.248;2022-10-31T02:52:50;11.10;99.90
20777;DHT22;10548;47.504;8.248;2022-10-31T02:55:50;11.20;99.90
20777;DHT22;10548;47.504;8.248;2022-10-31T02:58:21;11.20;99.90
20777;DHT22;10548;47.504;8.248;2022-10-31T03:01:07;11.20;99.90
20777;DHT22;10548;47.504;8.248;2022-10-31T03:07:03;11.30;99.90
20777;DHT22;10548;47.504;8.248;2022-10-31T03:09:43;11.30;99.90
20777;DHT22;10548;47.504;8.248;2022-10-31T03:13:00;11.20;99.90
20777;DHT22;10548;47.504;8.248;2022-10-31T03:15:30;11.20;99.90
20777;DHT22;10548;47.504;8.248;2022-10-31T03:18:11;11.10;99.90
20777;DHT22;10548;47.504;8.248;2022-10-31T03:20:42;11.20;99.90
20777;DHT22;10548;47.504;8.248;2022-10-31T03:23:15;11.20;99.90
20777;DHT22;10548;47.504;8.248;2022-10-31T03:25:48;11.00;99.90
20777;DHT22;10548;47.504;8.248;2022-10-31T03:28:17;11.00;99.90
20777;DHT22;10548;47.504;8.248;2022-10-31T03:30:46;11.00;99.90
20777;DHT22;10548;47.504;8.248;2022-10-31T03:33:18;11.00;99.90
20777;DHT22;10548;47.504;8.248;2022-10-31T03:35:48;11.00;99.90
20777;DHT22;10548;47.504;8.248;2022-10-31T03:38:18;11.00;99.90
20777;DHT22;10548;47.504;8.248;2022-10-31T03:40:48;11.10;99.90
20777;DHT22;10548;47.504;8.248;2022-10-31T03:43:22;11.10;99.90
20777;DHT22;10548;47.504;8.248;2022-10-31T03:45:50;11.10;99.90
20777;DHT22;10548;47.504;8.248;2022-10-31T03:48:19;11.10;99.90
20777;DHT22;10548;47.504;8.248;2022-10-31T03:51:00;11.00;99.90
20777;DHT22;10548;47.504;8.248;2022-10-31T03:53:34;11.00;99.90
20777;DHT22;10548;47.504;8.248;2022-10-31T03:56:18;11.00;99.90
20777;DHT22;10548;47.504;8.248;2022-10-31T03:58:52;11.00;99.90
20777;DHT22;10548;47.504;8.248;2022-10-31T04:01:24;10.90;99.90
20777;DHT22;10548;47.504;8.248;2022-10-31T04:03:52;11.00;99.90
20777;DHT22;10548;47.504;8.248;2022-10-31T04:06:20;11.10;99.90
20777;DHT22;10548;47.504;8.248;2022-10-31T04:08:54;11.10;99.90
20777;DHT22;10548;47.504;8.248;2022-10-31T04:11:27;11.00;99.90
20777;DHT22;10548;47.504;8.248;2022-10-31T04:14:29;11.00;99.90
20777;DHT22;10548;47.504;8.248;2022-10-31T04:16:59;11.10;99.90
20777;DHT22;10548;47.504;8.248;2022-10-31T04:19:34;11.00;99.90
20777;DHT22;10548;47.504;8.248;2022-10-31T04:22:01;11.00;99.90
20777;DHT22;10548;47.504;8.248;2022-10-31T04:24:29;11.00;99.90
20777;DHT22;10548;47.504;8.248;2022-10-31T04:26:57;11.00;99.90
20777;DHT22;10548;47.504;8.248;2022-10-31T04:29:24;11.00;99.90
20777;DHT22;10548;47.504;8.248;2022-10-31T04:31:52;11.10;99.90
20777;DHT22;10548;47.504;8.248;2022-10-31T04:34:19;11.10;99.90
20777;DHT22;10548;47.504;8.248;2022-10-31T04:36:46;11.20;99.90
20777;DHT22;10548;47.504;8.248;2022-10-31T04:39:15;11.00;99.90
20777;DHT22;10548;47.504;8.248;2022-10-31T04:42:02;11.10;99.90
20777;DHT22;10548;47.504;8.248;2022-10-31T04:44:31;11.10;99.90
20777;DHT22;10548;47.504;8.248;2022-10-31T04:47:00;11.00;99.90
20777;DHT22;10548;47.504;8.248;2022-10-31T04:49:27;11.00;99.90
20777;DHT22;10548;47.504;8.248;2022-10-31T04:51:55;11.10;99.90
20777;DHT22;10548;47.504;8.248;2022-10-31T04:54:23;10.90;99.90
20777;DHT22;10548;47.504;8.248;2022-10-31T04:57:25;10.90;99.90
20777;DHT22;10548;47.504;8.248;2022-10-31T04:59:54;10.90;99.90
20777;DHT22;10548;47.504;8.248;2022-10-31T05:02:22;10.90;99.90
20777;DHT22;10548;47.504;8.248;2022-10-31T05:04:54;10.90;99.90
20777;DHT22;10548;47.504;8.248;2022-10-31T05:07:22;10.90;99.90
20777;DHT22;10548;47.504;8.248;2022-10-31T05:09:49;10.90;99.90
20777;DHT22;10548;47.504;8.248;2022-10-31T05:12:18;10.80;99.90
20777;DHT22;10548;47.504;8.248;2022-10-31T05:15:05;10.90;99.90
20777;DHT22;10548;47.504;8.248;2022-10-31T05:17:52;10.90;99.90
20777;DHT22;10548;47.504;8.248;2022-10-31T05:20:45;11.00;99.90
20777;DHT22;10548;47.504;8.248;2022-10-31T05:23:22;11.00;99.90
20777;DHT22;10548;47.504;8.248;2022-10-31T05:25:49;11.10;99.90
20777;DHT22;10548;47.504;8.248;2022-10-31T05:28:16;11.10;99.90
20777;DHT22;10548;47.504;8.248;2022-10-31T05:30:44;11.00;99.90
20777;DHT22;10548;47.504;8.248;2022-10-31T05:33:14;11.10;99.90
20777;DHT22;10548;47.504;8.248;2022-10-31T05:36:07;11.00;99.90
20777;DHT22;10548;47.504;8.248;2022-10-31T05:38:40;10.90;99.90
20777;DHT22;10548;47.504;8.248;2022-10-31T05:41:15;11.10;99.90
20777;DHT22;10548;47.504;8.248;2022-10-31T05:43:45;11.00;99.90
20777;DHT22;10548;47.504;8.248;2022-10-31T05:46:14;11.00;99.90
20777;DHT22;10548;47.504;8.248;2022-10-31T05:48:59;11.00;99.90
20777;DHT22;10548;47.504;8.248;2022-10-31T05:51:47;11.00;99.90
20777;DHT22;10548;47.504;8.248;2022-10-31T05:54:14;11.00;99.90
20777;DHT22;10548;47.504;8.248;2022-10-31T05:56:44;11.00;99.90
20777;DHT22;10548;47.504;8.248;2022-10-31T05:59:11;11.00;99.90
20777;DHT22;10548;47.504;8.248;2022-10-31T06:01:39;11.00;99.90
20777;DHT22;10548;47.504;8.248;2022-10-31T06:04:20;10.90;99.90
20777;DHT22;10548;47.504;8.248;2022-10-31T06:06:47;10.90;99.90
20777;DHT22;10548;47.504;8.248;2022-10-31T06:09:15;10.90;99.90
20777;DHT22;10548;47.504;8.248;2022-10-31T06:11:43;10.90;99.90
20777;DHT22;10548;47.504;8.248;2022-10-31T06:14:29;10.90;99.90
20777;DHT22;10548;47.504;8.248;2022-10-31T06:16:57;10.80;99.90
20777;DHT22;10548;47.504;8.248;2022-10-31T06:19:43;10.70;99.90
20777;DHT22;10548;47.504;8.248;2022-10-31T06:22:14;10.90;99.90
20777;DHT22;10548;47.504;8.248;2022-10-31T06:24:42;10.70;99.90
20777;DHT22;10548;47.504;8.248;2022-10-31T06:27:21;10.80;99.90
20777;DHT22;10548;47.504;8.248;2022-10-31T06:29:48;10.80;99.90
20777;DHT22;10548;47.504;8.248;2022-10-31T06:32:27;10.90;99.90
20777;DHT22;10548;47.504;8.248;2022-10-31T06:34:54;10.90;99.90
20777;DHT22;10548;47.504;8.248;2022-10-31T06:37:22;10.80;99.90
20777;DHT22;10548;47.504;8.248;2022-10-31T06:39:50;10.90;99.90
20777;DHT22;10548;47.504;8.248;2022-10-31T06:42:17;10.90;99.90
20777;DHT22;10548;47.504;8.248;2022-10-31T06:44:45;10.90;99.90
20777;DHT22;10548;47.504;8.248;2022-10-31T06:47:41;10.90;99.90
20777;DHT22;10548;47.504;8.248;2022-10-31T06:50:32;11.00;99.90
20777;DHT22;10548;47.504;8.248;2022-10-31T06:52:59;11.00;99.90
20777;DHT22;10548;47.504;8.248;2022-10-31T06:55:26;10.90;99.90
20777;DHT22;10548;47.504;8.248;2022-10-31T06:57:55;11.00;99.90
20777;DHT22;10548;47.504;8.248;2022-10-31T07:00:30;11.00;99.90
20777;DHT22;10548;47.504;8.248;2022-10-31T07:03:10;11.00;99.90
20777;DHT22;10548;47.504;8.248;2022-10-31T07:05:38;11.10;99.90
20777;DHT22;10548;47.504;8.248;2022-10-31T07:08:07;11.10;99.90
20777;DHT22;10548;47.504;8.248;2022-10-31T07:10:36;11.10;99.90
20777;DHT22;10548;47.504;8.248;2022-10-31T07:13:12;11.10;99.90
20777;DHT22;10548;47.504;8.248;2022-10-31T07:15:44;11.20;99.90
20777;DHT22;10548;47.504;8.248;2022-10-31T07:18:12;11.30;99.90
20777;DHT22;10548;47.504;8.248;2022-10-31T07:20:39;11.20;99.90
20777;DHT22;10548;47.504;8.248;2022-10-31T07:23:09;11.10;99.90
20777;DHT22;10548;47.504;8.248;2022-10-31T07:25:39;11.10;99.90
20777;DHT22;10548;47.504;8.248;2022-10-31T07:28:11;11.20;99.90
20777;DHT22;10548;47.504;8.248;2022-10-31T07:30:38;11.10;99.90
20777;DHT22;10548;47.504;8.248;2022-10-31T07:33:08;11.10;99.90
20777;DHT22;10548;47.504;8.248;2022-10-31T07:35:54;11.00;99.90
20777;DHT22;10548;47.504;8.248;2022-10-31T07:38:23;11.10;99.90
20777;DHT22;10548;47.504;8.248;2022-10-31T07:40:52;11.00;99.90
20777;DHT22;10548;47.504;8.248;2022-10-31T07:43:23;11.00;99.90
20777;DHT22;10548;47.504;8.248;2022-10-31T07:46:10;10.80;99.90
20777;DHT22;10548;47.504;8.248;2022-10-31T07:49:01;10.80;99.90
20777;DHT22;10548;47.504;8.248;2022-10-31T07:52:01;10.80;99.90
20777;DHT22;10548;47.504;8.248;2022-10-31T07:54:54;11.00;99.90
20777;DHT22;10548;47.504;8.248;2022-10-31T07:57:22;11.00;99.90
20777;DHT22;10548;47.504;8.248;2022-10-31T07:59:51;10.80;99.90
20777;DHT22;10548;47.504;8.248;2022-10-31T08:02:18;10.90;99.90
20777;DHT22;10548;47.504;8.248;2022-10-31T08:05:05;11.00;99.90
20777;DHT22;10548;47.504;8.248;2022-10-31T08:08:05;11.00;99.90
20777;DHT22;10548;47.504;8.248;2022-10-31T08:10:33;10.90;99.90
20777;DHT22;10548;47.504;8.248;2022-10-31T08:13:07;10.90;99.90
20777;DHT22;10548;47.504;8.248;2022-10-31T08:15:37;11.00;99.90
20777;DHT22;10548;47.504;8.248;2022-10-31T08:18:12;10.90;99.90
20777;DHT22;10548;47.504;8.248;2022-10-31T08:20:43;10.90;99.90
20777;DHT22;10548;47.504;8.248;2022-10-31T08:23:11;11.00;99.90
20777;DHT22;10548;47.504;8.248;2022-10-31T08:25:40;11.00;99.90
20777;DHT22;10548;47.504;8.248;2022-10-31T08:28:10;11.00;99.90
20777;DHT22;10548;47.504;8.248;2022-10-31T08:30:41;10.90;99.90
20777;DHT22;10548;47.504;8.248;2022-10-31T08:33:27;11.10;99.90
20777;DHT22;10548;47.504;8.248;2022-10-31T08:36:13;11.10;99.90
20777;DHT22;10548;47.504;8.248;2022-10-31T08:38:51;11.00;99.90
20777;DHT22;10548;47.504;8.248;2022-10-31T08:41:26;11.00;99.90
20777;DHT22;10548;47.504;8.248;2022-10-31T08:43:54;11.00;99.90
20777;DHT22;10548;47.504;8.248;2022-10-31T08:46:21;11.00;99.90
20777;DHT22;10548;47.504;8.248;2022-10-31T08:48:48;11.20;99.90
20777;DHT22;10548;47.504;8.248;2022-10-31T08:51:17;11.40;99.90
20777;DHT22;10548;47.504;8.248;2022-10-31T08:53:44;11.30;99.90
20777;DHT22;10548;47.504;8.248;2022-10-31T08:56:46;11.20;99.90
20777;DHT22;10548;47.504;8.248;2022-10-31T08:59:30;11.10;99.90
20777;DHT22;10548;47.504;8.248;2022-10-31T09:02:16;11.10;99.90
20777;DHT22;10548;47.504;8.248;2022-10-31T09:04:44;11.20;99.90
20777;DHT22;10548;47.504;8.248;2022-10-31T09:07:11;11.50;99.90
20777;DHT22;10548;47.504;8.248;2022-10-31T09:09:47;11.60;99.90
20777;DHT22;10548;47.504;8.248;2022-10-31T09:12:14;11.80;99.90
20777;DHT22;10548;47.504;8.248;2022-10-31T09:15:01;11.70;99.90
20777;DHT22;10548;47.504;8.248;2022-10-31T09:17:37;11.60;99.90
20777;DHT22;10548;47.504;8.248;2022-10-31T09:20:29;11.90;99.90
20777;DHT22;10548;47.504;8.248;2022-10-31T09:23:05;11.70;99.90
20777;DHT22;10548;47.504;8.248;2022-10-31T09:25:34;11.60;99.90
20777;DHT22;10548;47.504;8.248;2022-10-31T09:28:23;11.50;99.90
20777;DHT22;10548;47.504;8.248;2022-10-31T09:30:53;11.80;99.90
20777;DHT22;10548;47.504;8.248;2022-10-31T09:33:40;12.00;99.90
20777;DHT22;10548;47.504;8.248;2022-10-31T09:36:28;12.00;99.90
20777;DHT22;10548;47.504;8.248;2022-10-31T09:38:56;12.00;99.90
20777;DHT22;10548;47.504;8.248;2022-10-31T09:45:37;12.00;99.90
20777;DHT22;10548;47.504;8.248;2022-10-31T09:48:22;12.00;99.90
20777;DHT22;10548;47.504;8.248;2022-10-31T09:51:20;12.20;99.90
20777;DHT22;10548;47.504;8.248;2022-10-31T09:54:32;12.00;99.90
20777;DHT22;10548;47.504;8.248;2022-10-31T09:57:02;12.10;99.90
20777;DHT22;10548;47.504;8.248;2022-10-31T09:59:37;11.90;99.90
20777;DHT22;10548;47.504;8.248;2022-10-31T10:02:27;12.00;99.90
20777;DHT22;10548;47.504;8.248;2022-10-31T10:05:01;11.80;99.90
20777;DHT22;10548;47.504;8.248;2022-10-31T10:07:37;11.80;99.90
20777;DHT22;10548;47.504;8.248;2022-10-31T10:11:51;11.80;99.90
20777;DHT22;10548;47.504;8.248;2022-10-31T10:14:15;11.80;99.90
20777;DHT22;10548;47.504;8.248;2022-10-31T10:21:24;12.00;99.90
20777;DHT22;10548;47.504;8.248;2022-10-31T10:25:20;12.00;99.90
20777;DHT22;10548;47.504;8.248;2022-10-31T10:30:10;12.50;99.90
20777;DHT22;10548;47.504;8.248;2022-10-31T10:32:56;12.30;99.90
20777;DHT22;10548;47.504;8.248;2022-10-31T10:35:40;12.50;99.90
20777;DHT22;10548;47.504;8.248;2022-10-31T10:38:37;12.40;99.90
20777;DHT22;10548;47.504;8.248;2022-10-31T10:41:18;12.30;99.90
20777;DHT22;10548;47.504;8.248;2022-10-31T10:43:48;12.40;99.90
20777;DHT22;10548;47.504;8.248;2022-10-31T10:46:55;12.40;99.90
20777;DHT22;10548;47.504;8.248;2022-10-31T10:49:50;12.70;99.90
20777;DHT22;10548;47.504;8.248;2022-10-31T10:53:05;12.80;99.90
20777;DHT22;10548;47.504;8.248;2022-10-31T10:56:46;13.00;99.90
20777;DHT22;10548;47.504;8.248;2022-10-31T10:58:40;13.20;99.90
20777;DHT22;10548;47.504;8.248;2022-10-31T11:01:11;13.40;99.90
20777;DHT22;10548;47.504;8.248;2022-10-31T11:03:44;13.60;99.90
20777;DHT22;10548;47.504;8.248;2022-10-31T11:06:22;13.90;99.90
20777;DHT22;10548;47.504;8.248;2022-10-31T11:08:53;13.90;99.90
20777;DHT22;10548;47.504;8.248;2022-10-31T11:14:11;14.10;99.90
20777;DHT22;10548;47.504;8.248;2022-10-31T11:16:44;15.70;99.90
20777;DHT22;10548;47.504;8.248;2022-10-31T11:19:23;16.30;99.90
20777;DHT22;10548;47.504;8.248;2022-10-31T11:21:52;17.40;99.90
20777;DHT22;10548;47.504;8.248;2022-10-31T11:24:22;19.00;99.90
20777;DHT22;10548;47.504;8.248;2022-10-31T11:26:50;17.40;99.90
20777;DHT22;10548;47.504;8.248;2022-10-31T11:29:22;16.60;99.90
20777;DHT22;10548;47.504;8.248;2022-10-31T11:31:53;16.10;99.90
20777;DHT22;10548;47.504;8.248;2022-10-31T11:34:32;18.10;99.90
20777;DHT22;10548;47.504;8.248;2022-10-31T11:37:15;18.60;99.60
20777;DHT22;10548;47.504;8.248;2022-10-31T11:39:45;17.00;99.90
20777;DHT22;10548;47.504;8.248;2022-10-31T11:42:15;17.60;99.90
20777;DHT22;10548;47.504;8.248;2022-10-31T11:44:43;17.40;99.90
20777;DHT22;10548;47.504;8.248;2022-10-31T11:47:15;20.70;93.80
20777;DHT22;10548;47.504;8.248;2022-10-31T11:49:45;24.70;62.90
20777;DHT22;10548;47.504;8.248;2022-10-31T11:52:28;25.60;54.20
20777;DHT22;10548;47.504;8.248;2022-10-31T11:55:13;24.80;54.70
20777;DHT22;10548;47.504;8.248;2022-10-31T11:57:49;24.60;54.60
20777;DHT22;10548;47.504;8.248;2022-10-31T12:00:35;21.60;65.10
20777;DHT22;10548;47.504;8.248;2022-10-31T12:03:41;22.90;60.00
20777;DHT22;10548;47.504;8.248;2022-10-31T12:06:32;23.80;57.30
20777;DHT22;10548;47.504;8.248;2022-10-31T12:09:00;25.40;53.10
20777;DHT22;10548;47.504;8.248;2022-10-31T12:12:09;25.30;50.30
20777;DHT22;10548;47.504;8.248;2022-10-31T12:15:18;25.70;49.00
20777;DHT22;10548;47.504;8.248;2022-10-31T12:24:08;24.60;49.30
20777;DHT22;10548;47.504;8.248;2022-10-31T12:27:06;23.30;49.60
20777;DHT22;10548;47.504;8.248;2022-10-31T12:30:23;22.80;52.00
20777;DHT22;10548;47.504;8.248;2022-10-31T12:33:44;24.00;54.30
20777;DHT22;10548;47.504;8.248;2022-10-31T12:39:39;22.70;57.40
20777;DHT22;10548;47.504;8.248;2022-10-31T12:42:57;25.80;49.20
20777;DHT22;10548;47.504;8.248;2022-10-31T12:45:42;27.10;45.50
20777;DHT22;10548;47.504;8.248;2022-10-31T12:48:41;26.00;46.10
20777;DHT22;10548;47.504;8.248;2022-10-31T12:51:47;25.20;48.20
20777;DHT22;10548;47.504;8.248;2022-10-31T12:54:55;24.80;47.80
20777;DHT22;10548;47.504;8.248;2022-10-31T12:57:39;25.20;44.20
20777;DHT22;10548;47.504;8.248;2022-10-31T13:00:17;23.80;46.50
20777;DHT22;10548;47.504;8.248;2022-10-31T13:05:46;24.00;49.60
20777;DHT22;10548;47.504;8.248;2022-10-31T13:08:38;25.60;47.60
20777;DHT22;10548;47.504;8.248;2022-10-31T13:11:14;25.20;47.60
20777;DHT22;10548;47.504;8.248;2022-10-31T13:14:18;25.40;47.30
20777;DHT22;10548;47.504;8.248;2022-10-31T13:16:49;24.20;47.70
20777;DHT22;10548;47.504;8.248;2022-10-31T13:19:22;24.90;48.20
20777;DHT22;10548;47.504;8.248;2022-10-31T13:22:05;23.90;49.90
20777;DHT22;10548;47.504;8.248;2022-10-31T13:24:59;23.40;53.10
20777;DHT22;10548;47.504;8.248;2022-10-31T13:30:31;24.60;50.30
20777;DHT22;10548;47.504;8.248;2022-10-31T13:36:35;23.40;52.30
20777;DHT22;10548;47.504;8.248;2022-10-31T13:39:26;24.10;50.90
20777;DHT22;10548;47.504;8.248;2022-10-31T13:45:16;25.20;49.30
20777;DHT22;10548;47.504;8.248;2022-10-31T13:47:55;27.30;41.80
20777;DHT22;10548;47.504;8.248;2022-10-31T13:50:27;28.10;38.90
20777;DHT22;10548;47.504;8.248;2022-10-31T13:53:43;27.50;39.00
20777;DHT22;10548;47.504;8.248;2022-10-31T13:56:32;27.20;40.90
20777;DHT22;10548;47.504;8.248;2022-10-31T13:59:19;26.00;41.70
20777;DHT22;10548;47.504;8.248;2022-10-31T14:01:50;23.30;48.40
20777;DHT22;10548;47.504;8.248;2022-10-31T14:04:23;21.90;53.30
20777;DHT22;10548;47.504;8.248;2022-10-31T14:07:06;20.90;57.50
20777;DHT22;10548;47.504;8.248;2022-10-31T14:10:06;22.00;58.90
20777;DHT22;10548;47.504;8.248;2022-10-31T14:12:45;23.80;56.20
20777;DHT22;10548;47.504;8.248;2022-10-31T14:15:22;23.30;55.70
20777;DHT22;10548;47.504;8.248;2022-10-31T14:18:03;24.10;53.30
20777;DHT22;10548;47.504;8.248;2022-10-31T14:20:39;23.50;53.90
20777;DHT22;10548;47.504;8.248;2022-10-31T14:23:39;21.70;59.90
20777;DHT22;10548;47.504;8.248;2022-10-31T14:26:35;20.40;66.90
20777;DHT22;10548;47.504;8.248;2022-10-31T14:29:30;20.20;73.40
20777;DHT22;10548;47.504;8.248;2022-10-31T14:35:03;21.70;66.80
20777;DHT22;10548;47.504;8.248;2022-10-31T14:39:12;21.40;69.10
20777;DHT22;10548;47.504;8.248;2022-10-31T14:41:41;24.00;55.60
20777;DHT22;10548;47.504;8.248;2022-10-31T14:44:39;25.30;52.90
20777;DHT22;10548;47.504;8.248;2022-10-31T14:50:20;25.30;51.60
20777;DHT22;10548;47.504;8.248;2022-10-31T14:52:56;25.20;51.80
20777;DHT22;10548;47.504;8.248;2022-10-31T14:55:24;23.00;57.40
20777;DHT22;10548;47.504;8.248;2022-10-31T14:57:59;22.80;60.70
20777;DHT22;10548;47.504;8.248;2022-10-31T15:00:28;24.60;53.90
20777;DHT22;10548;47.504;8.248;2022-10-31T15:03:18;25.40;51.20
20777;DHT22;10548;47.504;8.248;2022-10-31T15:05:51;26.10;49.30
20777;DHT22;10548;47.504;8.248;2022-10-31T15:08:38;25.50;48.80
20777;DHT22;10548;47.504;8.248;2022-10-31T15:11:18;25.50;50.10
20777;DHT22;10548;47.504;8.248;2022-10-31T15:14:17;25.50;50.90
20777;DHT22;10548;47.504;8.248;2022-10-31T15:16:48;25.00;52.60
20777;DHT22;10548;47.504;8.248;2022-10-31T15:19:23;23.90;53.30
20777;DHT22;10548;47.504;8.248;2022-10-31T15:21:52;23.20;55.50
20777;DHT22;10548;47.504;8.248;2022-10-31T15:24:20;22.20;60.20
20777;DHT22;10548;47.504;8.248;2022-10-31T15:26:51;21.00;67.00
20777;DHT22;10548;47.504;8.248;2022-10-31T15:29:24;19.90;75.70
20777;DHT22;10548;47.504;8.248;2022-10-31T15:32:15;20.00;82.40
20777;DHT22;10548;47.504;8.248;2022-10-31T15:34:45;19.80;85.00
20777;DHT22;10548;47.504;8.248;2022-10-31T15:37:15;19.40;90.00
20777;DHT22;10548;47.504;8.248;2022-10-31T15:39:44;19.00;92.50
20777;DHT22;10548;47.504;8.248;2022-10-31T15:42:30;18.50;94.90
20777;DHT22;10548;47.504;8.248;2022-10-31T15:45:13;18.10;98.70
20777;DHT22;10548;47.504;8.248;2022-10-31T15:47:57;17.70;99.90
20777;DHT22;10548;47.504;8.248;2022-10-31T15:50:38;17.40;99.90
20777;DHT22;10548;47.504;8.248;2022-10-31T15:53:16;17.10;99.90
20777;DHT22;10548;47.504;8.248;2022-10-31T15:55:59;16.80;99.90
20777;DHT22;10548;47.504;8.248;2022-10-31T15:58:27;16.50;99.90
20777;DHT22;10548;47.504;8.248;2022-10-31T16:01:18;16.40;99.90
20777;DHT22;10548;47.504;8.248;2022-10-31T16:04:19;16.10;99.90
20777;DHT22;10548;47.504;8.248;2022-10-31T16:07:00;15.90;99.90
20777;DHT22;10548;47.504;8.248;2022-10-31T16:09:28;15.80;99.90
20777;DHT22;10548;47.504;8.248;2022-10-31T16:11:56;15.60;99.90
20777;DHT22;10548;47.504;8.248;2022-10-31T16:14:28;15.60;99.90
20777;DHT22;10548;47.504;8.248;2022-10-31T16:16:57;15.40;99.90
20777;DHT22;10548;47.504;8.248;2022-10-31T16:19:28;15.30;99.90
20777;DHT22;10548;47.504;8.248;2022-10-31T16:22:09;15.10;99.90
20777;DHT22;10548;47.504;8.248;2022-10-31T16:24:48;15.00;99.90
20777;DHT22;10548;47.504;8.248;2022-10-31T16:27:28;14.70;99.90
20777;DHT22;10548;47.504;8.248;2022-10-31T16:29:57;14.70;99.90
20777;DHT22;10548;47.504;8.248;2022-10-31T16:32:34;14.80;99.90
20777;DHT22;10548;47.504;8.248;2022-10-31T16:35:35;14.70;99.90
20777;DHT22;10548;47.504;8.248;2022-10-31T16:38:03;14.60;99.90
20777;DHT22;10548;47.504;8.248;2022-10-31T16:40:31;14.60;99.90
20777;DHT22;10548;47.504;8.248;2022-10-31T16:42:59;14.60;99.90
20777;DHT22;10548;47.504;8.248;2022-10-31T16:45:30;14.60;99.90
20777;DHT22;10548;47.504;8.248;2022-10-31T16:48:08;14.50;99.90
20777;DHT22;10548;47.504;8.248;2022-10-31T16:50:37;14.40;99.90
20777;DHT22;10548;47.504;8.248;2022-10-31T16:53:04;14.30;99.90
20777;DHT22;10548;47.504;8.248;2022-10-31T16:55:45;14.20;99.90
20777;DHT22;10548;47.504;8.248;2022-10-31T16:58:21;14.30;99.90
20777;DHT22;10548;47.504;8.248;2022-10-31T17:00:49;14.10;99.90
20777;DHT22;10548;47.504;8.248;2022-10-31T17:03:17;14.00;99.90
20777;DHT22;10548;47.504;8.248;2022-10-31T17:05:44;14.00;99.90
20777;DHT22;10548;47.504;8.248;2022-10-31T17:08:11;14.00;99.90
20777;DHT22;10548;47.504;8.248;2022-10-31T17:10:39;14.00;99.90
20777;DHT22;10548;47.504;8.248;2022-10-31T17:13:13;13.90;99.90
20777;DHT22;10548;47.504;8.248;2022-10-31T17:15:46;13.80;99.90
20777;DHT22;10548;47.504;8.248;2022-10-31T17:18:15;13.80;99.90
20777;DHT22;10548;47.504;8.248;2022-10-31T17:20:43;13.70;99.90
20777;DHT22;10548;47.504;8.248;2022-10-31T17:23:11;13.70;99.90
20777;DHT22;10548;47.504;8.248;2022-10-31T17:25:39;13.70;99.90
20777;DHT22;10548;47.504;8.248;2022-10-31T17:28:10;13.70;99.90